createdAt,value
2019-01-10T00:00:34.612Z,89.12
2019-01-10T00:03:04.025Z,89.37
2019-01-10T00:05:33.408Z,89.57
2019-01-10T00:08:03.179Z,89.47
2019-01-10T00:10:32.814Z,89.22
2019-01-10T00:13:02.232Z,89.50
2019-01-10T00:15:32.100Z,89.85
2019-01-10T00:18:01.423Z,89.43
2019-01-10T00:20:31.037Z,89.55
2019-01-10T00:23:01.027Z,89.57
2019-01-10T00:25:30.617Z,89.57
2019-01-10T00:27:59.958Z,89.63
2019-01-10T00:30:29.774Z,89.37
2019-01-10T00:32:59.445Z,89.47
2019-01-10T00:35:29.094Z,89.68
2019-01-10T00:37:58.437Z,89.68
2019-01-10T00:40:27.765Z,89.67
2019-01-10T00:42:57.115Z,89.64
2019-01-10T00:45:26.451Z,89.45
2019-01-10T00:47:56.201Z,88.23
2019-01-10T00:50:26.505Z,89.00
2019-01-10T00:52:55.825Z,89.17
2019-01-10T00:55:25.403Z,89.17
2019-01-10T00:57:54.833Z,89.29
2019-01-10T01:00:26.678Z,89.30
2019-01-10T01:02:55.985Z,88.96
2019-01-10T01:05:25.372Z,88.03
2019-01-10T01:07:54.779Z,88.76
2019-01-10T01:10:27.265Z,88.63
2019-01-10T01:12:58.674Z,88.97
2019-01-10T01:15:28.010Z,88.72
2019-01-10T01:17:57.629Z,89.16
2019-01-10T01:20:27.565Z,88.61
2019-01-10T01:22:57.239Z,88.61
2019-01-10T01:25:26.557Z,88.56
2019-01-10T01:27:56.113Z,88.66
2019-01-10T01:30:30.583Z,88.28
2019-01-10T01:33:00.945Z,88.71
2019-01-10T01:35:30.741Z,89.00
2019-01-10T01:38:02.934Z,88.66
2019-01-10T01:40:32.437Z,88.90
2019-01-10T01:43:07.278Z,88.92
2019-01-10T01:45:32.848Z,88.88
2019-01-10T01:48:02.169Z,89.20
2019-01-10T01:50:32.497Z,89.59
2019-01-10T01:53:02.112Z,89.33
2019-01-10T01:55:31.475Z,88.95
2019-01-10T01:58:00.806Z,88.95
2019-01-10T02:00:31.533Z,89.08
2019-01-10T02:03:03.486Z,89.51
2019-01-10T02:05:33.174Z,89.71
2019-01-10T02:08:02.922Z,89.71
2019-01-10T02:10:34.311Z,89.65
2019-01-10T02:13:03.650Z,89.67
2019-01-10T02:15:32.952Z,89.76
2019-01-10T02:18:04.153Z,89.56
2019-01-10T02:20:33.552Z,89.80
2019-01-10T02:23:05.384Z,89.64
2019-01-10T02:25:34.709Z,89.42
2019-01-10T02:28:04.408Z,89.65
2019-01-10T02:30:42.513Z,89.55
2019-01-10T02:33:11.886Z,89.80
2019-01-10T02:35:41.562Z,89.46
2019-01-10T02:38:10.867Z,89.41
2019-01-10T02:40:40.184Z,89.70
2019-01-10T02:43:09.889Z,89.75
2019-01-10T02:45:41.163Z,89.71
2019-01-10T02:48:10.610Z,89.31
2019-01-10T02:50:40.116Z,89.38
2019-01-10T02:53:11.920Z,89.51
2019-01-10T02:55:42.653Z,89.38
2019-01-10T02:58:12.063Z,89.51
2019-01-10T03:00:41.503Z,89.05
2019-01-10T03:03:11.432Z,88.96
2019-01-10T03:05:42.490Z,89.16
2019-01-10T03:08:11.837Z,88.66
2019-01-10T03:10:41.918Z,88.75
2019-01-10T03:13:11.249Z,88.57
2019-01-10T03:15:41.011Z,88.61
2019-01-10T03:18:11.013Z,88.47
2019-01-10T03:20:41.006Z,88.51
2019-01-10T03:23:10.345Z,88.78
2019-01-10T03:25:40.222Z,88.69
2019-01-10T03:28:10.577Z,88.63
2019-01-10T03:30:40.474Z,87.97
2019-01-10T03:33:10.845Z,88.16
2019-01-10T03:35:40.598Z,87.75
2019-01-10T03:38:10.451Z,87.94
2019-01-10T03:40:39.806Z,88.02
2019-01-10T03:43:09.229Z,88.13
2019-01-10T03:45:38.866Z,88.12
2019-01-10T03:48:08.192Z,87.89
2019-01-10T03:50:37.961Z,88.07
2019-01-10T03:53:07.794Z,88.25
2019-01-10T03:55:38.588Z,88.23
2019-01-10T03:58:10.807Z,88.08
2019-01-10T04:00:40.135Z,88.00
2019-01-10T04:03:10.440Z,87.75
2019-01-10T04:05:40.253Z,87.40
2019-01-10T04:08:09.851Z,87.60
2019-01-10T04:10:39.596Z,87.22
2019-01-10T04:13:08.961Z,87.48
2019-01-10T04:15:38.657Z,87.54
2019-01-10T04:18:08.480Z,87.76
2019-01-10T04:20:38.092Z,87.84
2019-01-10T04:23:07.787Z,87.80
2019-01-10T04:25:37.118Z,86.84
2019-01-10T04:28:06.502Z,87.58
2019-01-10T04:30:36.203Z,87.91
2019-01-10T04:33:06.023Z,87.47
2019-01-10T04:35:35.352Z,87.83
2019-01-10T04:38:04.700Z,87.44
2019-01-10T04:40:34.271Z,87.52
2019-01-10T04:43:03.724Z,87.70
2019-01-10T04:45:33.430Z,87.44
2019-01-10T04:48:04.253Z,87.40
2019-01-10T04:50:37.055Z,87.50
2019-01-10T04:53:06.403Z,87.65
2019-01-10T04:55:36.156Z,87.58
2019-01-10T04:58:05.490Z,87.77
2019-01-10T05:00:34.891Z,87.81
2019-01-10T05:03:04.575Z,87.90
2019-01-10T05:05:34.274Z,87.76
2019-01-10T05:08:03.648Z,88.10
2019-01-10T05:10:33.285Z,87.99
2019-01-10T05:13:02.672Z,88.04
2019-01-10T05:15:32.008Z,88.04
2019-01-10T05:18:01.325Z,87.81
2019-01-10T05:20:30.652Z,87.46
2019-01-10T05:22:59.991Z,87.44
2019-01-10T05:25:29.317Z,87.86
2019-01-10T05:27:59.454Z,87.60
2019-01-10T05:30:29.035Z,87.79
2019-01-10T05:32:58.798Z,87.49
2019-01-10T05:35:28.218Z,87.74
2019-01-10T05:37:57.779Z,91.13
2019-01-10T05:40:29.110Z,90.51
2019-01-10T05:42:58.574Z,89.04
2019-01-10T05:45:29.631Z,88.04
2019-01-10T05:47:59.208Z,87.57
2019-01-10T05:50:29.374Z,87.15
2019-01-10T05:52:58.802Z,87.23
2019-01-10T05:55:30.127Z,87.14
2019-01-10T05:57:59.809Z,86.86
2019-01-10T06:00:29.191Z,86.92
2019-01-10T06:02:58.579Z,87.03
2019-01-10T06:05:28.500Z,86.95
2019-01-10T06:08:00.371Z,87.43
2019-01-10T06:10:30.130Z,88.18
2019-01-10T06:13:01.518Z,87.78
2019-01-10T06:15:31.739Z,87.85
2019-01-10T06:18:03.051Z,88.03
2019-01-10T06:20:32.390Z,88.36
2019-01-10T06:23:02.044Z,88.25
2019-01-10T06:25:34.164Z,88.51
2019-01-10T06:28:03.509Z,88.91
2019-01-10T06:30:34.937Z,89.09
2019-01-10T06:33:05.087Z,88.68
2019-01-10T06:35:34.619Z,89.15
2019-01-10T06:38:04.213Z,89.09
2019-01-10T06:40:33.907Z,89.42
2019-01-10T06:43:04.755Z,88.96
2019-01-10T06:45:34.354Z,88.68
2019-01-10T06:48:04.095Z,88.83
2019-01-10T06:50:33.422Z,89.06
2019-01-10T06:53:02.801Z,88.96
2019-01-10T06:55:32.482Z,89.08
2019-01-10T06:58:02.624Z,88.70
2019-01-10T07:00:32.245Z,88.35
2019-01-10T07:03:02.069Z,88.76
2019-01-10T07:05:32.295Z,89.05
2019-01-10T07:08:01.950Z,88.92
2019-01-10T07:10:31.266Z,88.83
2019-01-10T07:13:00.594Z,88.88
2019-01-10T07:15:30.074Z,88.92
2019-01-10T07:17:59.415Z,88.77
2019-01-10T07:20:30.347Z,88.68
2019-01-10T07:22:59.666Z,88.87
2019-01-10T07:25:29.339Z,88.13
2019-01-10T07:28:08.073Z,88.20
2019-01-10T07:30:37.392Z,88.25
2019-01-10T07:33:11.960Z,88.44
2019-01-10T07:35:41.405Z,88.32
2019-01-10T07:38:10.803Z,88.56
2019-01-10T07:40:40.476Z,88.34
2019-01-10T07:43:12.129Z,88.44
2019-01-10T07:45:41.734Z,87.59
2019-01-10T07:48:11.656Z,87.49
2019-01-10T07:50:40.992Z,87.66
2019-01-10T07:53:10.589Z,88.05
2019-01-10T07:55:39.905Z,87.67
2019-01-10T07:58:12.076Z,87.67
2019-01-10T08:00:41.402Z,87.24
2019-01-10T08:03:11.131Z,87.44
2019-01-10T08:05:40.472Z,87.35
2019-01-10T08:08:09.838Z,87.07
2019-01-10T08:10:39.648Z,87.23
2019-01-10T08:13:09.023Z,87.27
2019-01-10T08:15:38.333Z,87.76
2019-01-10T08:18:08.228Z,87.91
2019-01-10T08:20:37.566Z,87.92
2019-01-10T08:23:06.890Z,87.59
2019-01-10T08:25:36.223Z,87.82
2019-01-10T08:28:05.594Z,87.54
2019-01-10T08:30:34.903Z,88.04
2019-01-10T08:33:04.495Z,88.09
2019-01-10T08:35:34.181Z,87.97
2019-01-10T08:38:03.505Z,87.74
2019-01-10T08:40:32.882Z,88.06
2019-01-10T08:43:02.239Z,87.94
2019-01-10T08:45:31.900Z,87.78
2019-01-10T08:48:01.197Z,87.57
2019-01-10T08:50:31.407Z,87.18
2019-01-10T08:53:00.726Z,87.62
2019-01-10T08:55:30.350Z,87.43
2019-01-10T08:57:59.920Z,87.43
2019-01-10T09:00:29.240Z,87.44
2019-01-10T09:02:58.571Z,86.96
2019-01-10T09:05:28.156Z,87.20
2019-01-10T09:07:57.852Z,87.21
2019-01-10T09:10:27.462Z,86.66
2019-01-10T09:12:57.079Z,86.17
2019-01-10T09:15:34.293Z,86.09
2019-01-10T09:17:57.705Z,85.98
2019-01-10T09:20:31.218Z,86.25
2019-01-10T09:23:00.825Z,85.65
2019-01-10T09:25:30.424Z,85.83
2019-01-10T09:28:00.032Z,85.40
2019-01-10T09:30:29.362Z,85.55
2019-01-10T09:33:06.135Z,85.20
2019-01-10T09:35:35.465Z,85.35
2019-01-10T09:38:04.867Z,83.21
2019-01-10T09:40:34.204Z,84.05
2019-01-10T09:43:03.542Z,84.56
2019-01-10T09:45:32.863Z,84.08
2019-01-10T09:48:03.014Z,84.54
2019-01-10T09:50:32.431Z,83.76
2019-01-10T09:53:01.770Z,83.64
2019-01-10T09:55:31.183Z,83.26
2019-01-10T09:58:00.537Z,83.25
2019-01-10T10:00:32.641Z,83.90
2019-01-10T10:03:02.146Z,84.19
2019-01-10T10:05:31.471Z,84.11
2019-01-10T10:08:01.064Z,84.15
2019-01-10T10:10:30.392Z,84.62
2019-01-10T10:12:59.746Z,84.19
2019-01-10T10:15:29.819Z,83.67
2019-01-10T10:17:59.761Z,83.88
2019-01-10T10:20:32.199Z,83.28
2019-01-10T10:23:01.500Z,83.02
2019-01-10T10:25:31.128Z,82.99
2019-01-10T10:28:00.453Z,82.39
2019-01-10T10:30:30.048Z,82.67
2019-01-10T10:32:59.635Z,80.83
2019-01-10T10:35:29.275Z,81.81
2019-01-10T10:37:58.875Z,82.15
2019-01-10T10:40:28.479Z,78.73
2019-01-10T10:42:57.895Z,78.39
2019-01-10T10:45:27.506Z,76.80
2019-01-10T10:47:56.889Z,78.12
2019-01-10T10:50:47.595Z,78.50
2019-01-10T10:53:17.212Z,78.52
2019-01-10T10:55:46.579Z,78.79
2019-01-10T10:58:16.201Z,79.08
2019-01-10T11:00:45.821Z,79.06
2019-01-10T11:03:15.157Z,79.28
2019-01-10T11:05:44.862Z,78.94
2019-01-10T11:08:14.175Z,79.71
2019-01-10T11:10:43.526Z,80.14
2019-01-10T11:13:12.869Z,79.18
2019-01-10T11:15:42.877Z,80.55
2019-01-10T11:18:12.569Z,80.30
2019-01-10T11:20:41.885Z,79.49
2019-01-10T11:23:11.222Z,79.97
2019-01-10T11:25:40.873Z,79.96
2019-01-10T11:28:10.590Z,80.18
2019-01-10T11:30:39.953Z,79.51
2019-01-10T11:33:09.273Z,78.91
2019-01-10T11:35:38.891Z,79.06
2019-01-10T11:38:08.499Z,78.93
2019-01-10T11:40:37.841Z,77.62
2019-01-10T11:43:07.491Z,77.80
2019-01-10T11:45:36.794Z,78.35
2019-01-10T11:48:06.419Z,76.76
2019-01-10T11:50:35.735Z,76.88
2019-01-10T11:53:05.042Z,76.04
2019-01-10T11:55:35.236Z,75.30
2019-01-10T11:58:04.841Z,75.01
2019-01-10T12:00:34.175Z,74.43
2019-01-10T12:03:03.840Z,74.60
2019-01-10T12:05:33.188Z,74.63
2019-01-10T12:08:02.486Z,74.99
2019-01-10T12:10:32.158Z,74.77
2019-01-10T12:13:01.767Z,75.18
2019-01-10T12:15:31.115Z,75.34
2019-01-10T12:18:03.533Z,74.74
2019-01-10T12:20:32.853Z,75.24
2019-01-10T12:23:02.562Z,75.78
2019-01-10T12:25:32.171Z,76.15
2019-01-10T12:28:01.948Z,76.26
2019-01-10T12:30:31.584Z,75.47
2019-01-10T12:33:00.923Z,76.26
2019-01-10T12:35:30.916Z,76.10
2019-01-10T12:38:00.686Z,75.59
2019-01-10T12:40:30.354Z,76.17
2019-01-10T12:42:59.944Z,75.94
2019-01-10T12:45:29.303Z,76.92
2019-01-10T12:47:58.628Z,76.59
2019-01-10T12:50:29.673Z,76.84
2019-01-10T12:52:59.014Z,76.92
2019-01-10T12:55:28.334Z,76.68
2019-01-10T12:57:57.917Z,76.29
2019-01-10T13:00:27.602Z,76.35
2019-01-10T13:02:57.906Z,76.13
2019-01-10T13:05:27.293Z,74.69
2019-01-10T13:08:03.374Z,74.74
2019-01-10T13:10:28.493Z,75.13
2019-01-10T13:12:57.827Z,75.46
2019-01-10T13:15:27.683Z,76.05
2019-01-10T13:17:57.005Z,76.53
2019-01-10T13:20:26.702Z,76.92
2019-01-10T13:22:56.412Z,78.54
2019-01-10T13:25:26.122Z,78.40
2019-01-10T13:27:57.209Z,78.37
2019-01-10T13:30:27.012Z,78.48
2019-01-10T13:32:56.714Z,78.97
2019-01-10T13:35:26.386Z,78.45
2019-01-10T13:37:55.734Z,78.48
2019-01-10T13:40:25.227Z,78.13
2019-01-10T13:42:54.523Z,77.83
2019-01-10T13:45:24.278Z,78.13
2019-01-10T13:47:53.722Z,77.93
2019-01-10T13:50:26.097Z,77.50
2019-01-10T13:52:55.747Z,78.10
2019-01-10T13:55:25.123Z,78.41
2019-01-10T13:57:54.802Z,78.03
2019-01-10T14:00:35.278Z,78.12
2019-01-10T14:02:58.339Z,77.95
2019-01-10T14:05:28.939Z,77.86
2019-01-10T14:07:58.664Z,77.99
2019-01-10T14:10:28.275Z,78.65
2019-01-10T14:12:58.017Z,78.97
2019-01-10T14:15:29.988Z,77.82
2019-01-10T14:17:59.676Z,78.06
2019-01-10T14:20:30.672Z,78.04
2019-01-10T14:23:00.301Z,77.46
2019-01-10T14:25:30.012Z,78.27
2019-01-10T14:27:59.843Z,78.01
2019-01-10T14:30:32.557Z,77.32
2019-01-10T14:33:02.163Z,77.27
2019-01-10T14:35:31.951Z,77.17
2019-01-10T14:38:01.319Z,76.23
2019-01-10T14:40:30.641Z,76.58
2019-01-10T14:43:00.444Z,77.17
2019-01-10T14:45:29.789Z,77.09
2019-01-10T14:48:01.865Z,76.47
2019-01-10T14:50:30.207Z,76.99
2019-01-10T14:52:59.815Z,77.02
2019-01-10T14:55:29.138Z,76.65
2019-01-10T14:57:58.720Z,76.78
2019-01-10T15:00:28.412Z,77.50
2019-01-10T15:02:57.815Z,78.00
2019-01-10T15:05:27.414Z,78.32
2019-01-10T15:07:57.575Z,77.86
2019-01-10T15:10:27.163Z,77.82
2019-01-10T15:12:56.473Z,77.69
2019-01-10T15:15:26.146Z,78.28
2019-01-10T15:17:55.783Z,78.08
2019-01-10T15:20:28.557Z,77.59
2019-01-10T15:22:57.879Z,77.93
2019-01-10T15:25:27.551Z,78.81
2019-01-10T15:27:57.155Z,78.62
2019-01-10T15:30:28.315Z,78.17
2019-01-10T15:32:57.650Z,78.26
2019-01-10T15:35:27.312Z,78.79
2019-01-10T15:37:56.933Z,78.98
2019-01-10T15:40:29.379Z,78.40
2019-01-10T15:42:58.716Z,78.36
2019-01-10T15:45:28.301Z,77.60
2019-01-10T15:47:57.959Z,77.84
2019-01-10T15:50:27.278Z,78.31
2019-01-10T15:52:56.905Z,77.27
2019-01-10T15:55:26.504Z,78.47
2019-01-10T15:57:55.815Z,78.25
2019-01-10T16:00:25.642Z,78.21
2019-01-10T16:02:54.954Z,78.54
2019-01-10T16:05:24.517Z,78.00
2019-01-10T16:07:54.250Z,78.16
2019-01-10T16:10:23.559Z,77.70
2019-01-10T16:12:52.872Z,77.96
2019-01-10T16:15:24.323Z,78.03
2019-01-10T16:17:53.892Z,77.64
2019-01-10T16:20:23.198Z,78.00
2019-01-10T16:22:52.536Z,77.81
2019-01-10T16:25:22.232Z,77.80
2019-01-10T16:27:51.841Z,77.76
2019-01-10T16:30:24.393Z,76.84
2019-01-10T16:32:54.038Z,77.03
2019-01-10T16:35:23.366Z,76.97
2019-01-10T16:37:52.703Z,77.13
2019-01-10T16:40:22.041Z,76.55
2019-01-10T16:42:51.374Z,76.13
2019-01-10T16:45:26.868Z,77.10
2019-01-10T16:47:56.224Z,76.71
2019-01-10T16:50:25.995Z,77.07
2019-01-10T16:52:55.329Z,76.66
2019-01-10T16:55:24.986Z,76.81
2019-01-10T16:57:54.595Z,77.45
2019-01-10T17:00:27.602Z,77.41
2019-01-10T17:02:57.186Z,77.04
2019-01-10T17:05:26.796Z,76.22
2019-01-10T17:07:56.174Z,76.21
2019-01-10T17:10:25.499Z,76.29
2019-01-10T17:12:54.800Z,76.34
2019-01-10T17:15:24.405Z,76.09
2019-01-10T17:17:53.734Z,75.18
2019-01-10T17:20:25.971Z,76.03
2019-01-10T17:22:55.287Z,76.35
2019-01-10T17:25:24.675Z,75.29
2019-01-10T17:27:54.297Z,74.61
2019-01-10T17:30:26.761Z,74.85
2019-01-10T17:32:56.383Z,75.34
2019-01-10T17:35:31.138Z,75.11
2019-01-10T17:38:00.463Z,74.86
2019-01-10T17:40:30.075Z,75.23
2019-01-10T17:42:59.447Z,75.30
2019-01-10T17:45:31.767Z,75.07
2019-01-10T17:48:01.455Z,74.02
2019-01-10T17:50:32.674Z,73.73
2019-01-10T17:53:02.004Z,75.07
2019-01-10T17:55:31.319Z,75.12
2019-01-10T17:58:00.666Z,75.01
2019-01-10T18:00:32.676Z,74.70
2019-01-10T18:03:02.001Z,74.71
2019-01-10T18:05:33.486Z,75.25
2019-01-10T18:08:02.866Z,74.09
2019-01-10T18:10:32.262Z,74.95
2019-01-10T18:13:02.444Z,75.34
2019-01-10T18:15:31.814Z,74.97
2019-01-10T18:18:01.415Z,74.39
2019-01-10T18:20:36.069Z,75.04
2019-01-10T18:23:05.855Z,75.52
2019-01-10T18:25:35.515Z,75.25
2019-01-10T18:28:04.983Z,75.61
2019-01-10T18:30:34.267Z,75.13
2019-01-10T18:33:03.581Z,74.57
2019-01-10T18:35:32.936Z,74.59
2019-01-10T18:38:02.512Z,75.34
2019-01-10T18:40:31.881Z,75.32
2019-01-10T18:43:01.213Z,75.49
2019-01-10T18:45:31.736Z,75.77
2019-01-10T18:48:01.355Z,75.99
2019-01-10T18:50:30.987Z,76.28
2019-01-10T18:53:00.303Z,76.09
2019-01-10T18:55:29.877Z,75.78
2019-01-10T18:57:59.515Z,75.78
2019-01-10T19:00:32.424Z,75.87
2019-01-10T19:03:01.811Z,75.61
2019-01-10T19:05:31.163Z,75.73
2019-01-10T19:08:00.512Z,75.71
2019-01-10T19:10:29.872Z,75.55
2019-01-10T19:12:59.488Z,75.62
2019-01-10T19:15:28.885Z,75.11
2019-01-10T19:18:03.312Z,75.74
2019-01-10T19:20:29.870Z,75.85
2019-01-10T19:22:59.490Z,75.61
2019-01-10T19:25:28.825Z,75.88
2019-01-10T19:27:58.464Z,76.04
2019-01-10T19:30:30.312Z,76.10
2019-01-10T19:32:59.721Z,75.50
2019-01-10T19:35:29.136Z,75.93
2019-01-10T19:37:58.464Z,75.42
2019-01-10T19:40:27.793Z,76.48
2019-01-10T19:42:57.394Z,76.02
2019-01-10T19:45:26.739Z,76.66
2019-01-10T19:47:56.039Z,75.44
2019-01-10T19:50:26.908Z,74.48
2019-01-10T19:52:56.588Z,75.64
2019-01-10T19:55:25.949Z,75.20
2019-01-10T19:57:57.179Z,74.61
2019-01-10T20:00:33.805Z,73.99
2019-01-10T20:03:03.441Z,74.06
2019-01-10T20:05:32.904Z,74.26
2019-01-10T20:08:02.213Z,73.92
2019-01-10T20:10:34.305Z,74.01
2019-01-10T20:13:03.619Z,74.62
2019-01-10T20:15:33.319Z,74.85
2019-01-10T20:18:02.758Z,74.02
2019-01-10T20:20:36.523Z,73.66
2019-01-10T20:23:07.480Z,73.83
2019-01-10T20:25:39.356Z,74.51
2019-01-10T20:28:09.139Z,74.72
2019-01-10T20:30:38.889Z,75.23
2019-01-10T20:33:08.232Z,75.01
2019-01-10T20:35:37.901Z,75.01
2019-01-10T20:38:07.242Z,75.03
2019-01-10T20:40:36.851Z,73.97
2019-01-10T20:43:06.153Z,74.87
2019-01-10T20:45:35.855Z,75.05
2019-01-10T20:48:05.189Z,74.77
2019-01-10T20:50:34.516Z,75.22
2019-01-10T20:53:03.896Z,74.73
2019-01-10T20:55:33.469Z,74.83
2019-01-10T20:58:03.057Z,74.33
2019-01-10T21:00:32.654Z,74.24
2019-01-10T21:03:02.005Z,73.96
2019-01-10T21:05:31.335Z,74.05
2019-01-10T21:08:01.411Z,73.30
2019-01-10T21:10:30.929Z,73.77
2019-01-10T21:13:00.545Z,72.99
2019-01-10T21:15:30.518Z,73.49
2019-01-10T21:17:59.948Z,73.33
2019-01-10T21:20:29.574Z,73.27
2019-01-10T21:22:59.588Z,72.61
2019-01-10T21:25:28.983Z,72.87
2019-01-10T21:27:59.159Z,72.61
2019-01-10T21:30:28.828Z,72.57
2019-01-10T21:32:58.213Z,72.75
2019-01-10T21:35:28.032Z,73.10
2019-01-10T21:37:57.441Z,73.52
2019-01-10T21:40:27.316Z,73.49
2019-01-10T21:42:57.307Z,73.46
2019-01-10T21:45:26.665Z,73.22
2019-01-10T21:47:56.333Z,73.60
2019-01-10T21:50:27.398Z,73.48
2019-01-10T21:52:56.966Z,72.73
2019-01-10T21:55:26.301Z,73.24
2019-01-10T21:57:55.660Z,72.79
2019-01-10T22:00:31.635Z,73.41
2019-01-10T22:03:01.547Z,73.23
2019-01-10T22:05:30.977Z,73.41
2019-01-10T22:08:00.732Z,73.72
2019-01-10T22:10:31.434Z,73.11
2019-01-10T22:13:00.791Z,73.58
2019-01-10T22:15:31.132Z,72.28
2019-01-10T22:18:04.573Z,71.82
2019-01-10T22:20:34.260Z,71.79
2019-01-10T22:23:03.576Z,72.00
2019-01-10T22:25:32.925Z,71.99
2019-01-10T22:28:02.267Z,71.56
2019-01-10T22:30:31.888Z,71.02
2019-01-10T22:33:01.475Z,71.07
2019-01-10T22:35:31.110Z,70.85
2019-01-10T22:38:00.680Z,71.05
2019-01-10T22:40:30.249Z,70.50
2019-01-10T22:42:59.587Z,71.01
2019-01-10T22:45:29.191Z,70.21
2019-01-10T22:47:58.517Z,70.80
2019-01-10T22:50:28.274Z,70.57
2019-01-10T22:52:57.599Z,71.14
2019-01-10T22:55:27.200Z,71.25
2019-01-10T22:57:57.283Z,70.45
2019-01-10T23:00:41.885Z,70.21
2019-01-10T23:03:11.478Z,70.41
2019-01-10T23:05:46.446Z,70.31
2019-01-10T23:08:16.068Z,70.74
2019-01-10T23:10:45.434Z,70.65
2019-01-10T23:13:15.030Z,70.41
2019-01-10T23:15:44.387Z,70.12
2019-01-10T23:18:14.006Z,70.12
2019-01-10T23:20:43.333Z,70.51
2019-01-10T23:23:13.675Z,70.43
2019-01-10T23:25:44.893Z,70.14
2019-01-10T23:28:14.485Z,70.34
2019-01-10T23:30:50.572Z,70.54
2019-01-10T23:33:20.712Z,70.54
2019-01-10T23:35:53.868Z,70.39
2019-01-10T23:38:24.098Z,69.76
2019-01-10T23:40:53.419Z,70.28
2019-01-10T23:43:22.752Z,71.04
2019-01-10T23:45:52.094Z,69.83
2019-01-10T23:48:21.702Z,69.94
2019-01-10T23:50:51.074Z,69.67
2019-01-10T23:53:20.653Z,70.57
2019-01-10T23:55:50.223Z,70.37
2019-01-10T23:58:19.827Z,71.31
